sensor_id;sensor_type;location;lat;lon;timestamp;P1;durP1;ratioP1;P2;durP2;ratioP2
68457;SDS011;65384;52.016;5.428;2023-05-16T00:01:18;11.60;;;1.67;;
68457;SDS011;65384;52.016;5.428;2023-05-16T00:03:43;7.18;;;1.67;;
68457;SDS011;65384;52.016;5.428;2023-05-16T00:06:09;16.10;;;1.77;;
68457;SDS011;65384;52.016;5.428;2023-05-16T00:08:35;9.80;;;1.67;;
68457;SDS011;65384;52.016;5.428;2023-05-16T00:11:00;13.32;;;1.75;;
68457;SDS011;65384;52.016;5.428;2023-05-16T00:13:26;10.05;;;1.77;;
68457;SDS011;65384;52.016;5.428;2023-05-16T00:15:53;18.25;;;1.95;;
68457;SDS011;65384;52.016;5.428;2023-05-16T00:18:20;11.05;;;1.60;;
68457;SDS011;65384;52.016;5.428;2023-05-16T00:20:48;10.77;;;2.92;;
68457;SDS011;65384;52.016;5.428;2023-05-16T00:23:14;14.48;;;1.63;;
68457;SDS011;65384;52.016;5.428;2023-05-16T00:25:39;10.13;;;1.42;;
68457;SDS011;65384;52.016;5.428;2023-05-16T00:28:05;16.30;;;2.10;;
68457;SDS011;65384;52.016;5.428;2023-05-16T00:30:31;6.75;;;1.58;;
68457;SDS011;65384;52.016;5.428;2023-05-16T00:32:56;13.63;;;2.17;;
68457;SDS011;65384;52.016;5.428;2023-05-16T00:35:22;9.75;;;1.88;;
68457;SDS011;65384;52.016;5.428;2023-05-16T00:37:47;10.52;;;1.48;;
68457;SDS011;65384;52.016;5.428;2023-05-16T00:40:12;9.80;;;1.48;;
68457;SDS011;65384;52.016;5.428;2023-05-16T00:42:38;15.15;;;1.65;;
68457;SDS011;65384;52.016;5.428;2023-05-16T00:45:04;9.38;;;1.42;;
68457;SDS011;65384;52.016;5.428;2023-05-16T00:47:30;8.32;;;1.40;;
68457;SDS011;65384;52.016;5.428;2023-05-16T00:49:55;16.35;;;2.20;;
68457;SDS011;65384;52.016;5.428;2023-05-16T00:52:21;11.38;;;1.83;;
68457;SDS011;65384;52.016;5.428;2023-05-16T00:54:46;13.65;;;2.03;;
68457;SDS011;65384;52.016;5.428;2023-05-16T00:57:12;9.93;;;1.80;;
68457;SDS011;65384;52.016;5.428;2023-05-16T00:59:37;5.88;;;1.20;;
68457;SDS011;65384;52.016;5.428;2023-05-16T01:02:04;9.07;;;1.48;;
68457;SDS011;65384;52.016;5.428;2023-05-16T01:04:29;10.93;;;1.50;;
68457;SDS011;65384;52.016;5.428;2023-05-16T01:06:55;18.30;;;2.03;;
68457;SDS011;65384;52.016;5.428;2023-05-16T01:09:21;7.85;;;1.50;;
68457;SDS011;65384;52.016;5.428;2023-05-16T01:11:50;10.68;;;1.70;;
68457;SDS011;65384;52.016;5.428;2023-05-16T01:14:37;13.45;;;1.80;;
68457;SDS011;65384;52.016;5.428;2023-05-16T01:17:20;16.95;;;1.65;;
68457;SDS011;65384;52.016;5.428;2023-05-16T01:25:15;16.10;;;1.58;;
68457;SDS011;65384;52.016;5.428;2023-05-16T01:27:48;8.10;;;1.20;;
68457;SDS011;65384;52.016;5.428;2023-05-16T01:30:15;9.90;;;1.40;;
68457;SDS011;65384;52.016;5.428;2023-05-16T01:32:41;9.60;;;1.45;;
68457;SDS011;65384;52.016;5.428;2023-05-16T01:35:07;7.97;;;1.30;;
68457;SDS011;65384;52.016;5.428;2023-05-16T01:37:57;7.70;;;1.55;;
68457;SDS011;65384;52.016;5.428;2023-05-16T01:43:16;15.75;;;1.50;;
68457;SDS011;65384;52.016;5.428;2023-05-16T01:45:44;8.65;;;1.40;;
68457;SDS011;65384;52.016;5.428;2023-05-16T01:48:15;13.25;;;1.58;;
68457;SDS011;65384;52.016;5.428;2023-05-16T01:50:43;5.95;;;1.58;;
68457;SDS011;65384;52.016;5.428;2023-05-16T01:53:13;6.95;;;1.50;;
68457;SDS011;65384;52.016;5.428;2023-05-16T01:55:52;8.52;;;1.40;;
68457;SDS011;65384;52.016;5.428;2023-05-16T01:58:21;10.38;;;1.35;;
68457;SDS011;65384;52.016;5.428;2023-05-16T02:00:48;9.07;;;1.58;;
68457;SDS011;65384;52.016;5.428;2023-05-16T02:03:13;10.10;;;1.30;;
68457;SDS011;65384;52.016;5.428;2023-05-16T02:05:38;9.15;;;1.80;;
68457;SDS011;65384;52.016;5.428;2023-05-16T02:08:04;8.90;;;1.40;;
68457;SDS011;65384;52.016;5.428;2023-05-16T02:10:29;6.78;;;1.30;;
68457;SDS011;65384;52.016;5.428;2023-05-16T02:12:55;5.72;;;1.23;;
68457;SDS011;65384;52.016;5.428;2023-05-16T02:15:20;12.73;;;1.83;;
68457;SDS011;65384;52.016;5.428;2023-05-16T02:17:46;6.55;;;1.40;;
68457;SDS011;65384;52.016;5.428;2023-05-16T02:20:12;11.52;;;1.52;;
68457;SDS011;65384;52.016;5.428;2023-05-16T02:22:37;11.60;;;1.70;;
68457;SDS011;65384;52.016;5.428;2023-05-16T02:25:03;18.90;;;2.20;;
68457;SDS011;65384;52.016;5.428;2023-05-16T02:27:29;4.85;;;1.50;;
68457;SDS011;65384;52.016;5.428;2023-05-16T02:29:55;15.25;;;1.73;;
68457;SDS011;65384;52.016;5.428;2023-05-16T02:32:20;12.50;;;1.65;;
68457;SDS011;65384;52.016;5.428;2023-05-16T02:34:45;11.05;;;1.23;;
68457;SDS011;65384;52.016;5.428;2023-05-16T02:37:11;8.10;;;1.42;;
68457;SDS011;65384;52.016;5.428;2023-05-16T02:39:36;11.80;;;1.67;;
68457;SDS011;65384;52.016;5.428;2023-05-16T02:42:02;11.80;;;1.58;;
68457;SDS011;65384;52.016;5.428;2023-05-16T02:44:28;9.13;;;1.50;;
68457;SDS011;65384;52.016;5.428;2023-05-16T02:46:53;10.18;;;2.40;;
68457;SDS011;65384;52.016;5.428;2023-05-16T02:49:18;9.65;;;1.67;;
68457;SDS011;65384;52.016;5.428;2023-05-16T02:51:44;9.98;;;1.50;;
68457;SDS011;65384;52.016;5.428;2023-05-16T02:54:11;11.00;;;1.77;;
68457;SDS011;65384;52.016;5.428;2023-05-16T02:56:36;10.13;;;1.55;;
68457;SDS011;65384;52.016;5.428;2023-05-16T02:59:02;8.70;;;1.40;;
68457;SDS011;65384;52.016;5.428;2023-05-16T03:01:28;11.30;;;2.13;;
68457;SDS011;65384;52.016;5.428;2023-05-16T03:03:54;7.55;;;1.45;;
68457;SDS011;65384;52.016;5.428;2023-05-16T03:06:19;10.35;;;1.67;;
68457;SDS011;65384;52.016;5.428;2023-05-16T03:08:44;10.95;;;1.73;;
68457;SDS011;65384;52.016;5.428;2023-05-16T03:11:10;13.02;;;1.92;;
68457;SDS011;65384;52.016;5.428;2023-05-16T03:13:35;11.23;;;1.85;;
68457;SDS011;65384;52.016;5.428;2023-05-16T03:16:00;7.43;;;1.63;;
68457;SDS011;65384;52.016;5.428;2023-05-16T03:18:26;6.82;;;1.50;;
68457;SDS011;65384;52.016;5.428;2023-05-16T03:20:52;8.48;;;1.75;;
68457;SDS011;65384;52.016;5.428;2023-05-16T03:23:18;5.50;;;1.88;;
68457;SDS011;65384;52.016;5.428;2023-05-16T03:25:44;17.45;;;1.95;;
68457;SDS011;65384;52.016;5.428;2023-05-16T03:28:10;7.07;;;1.60;;
68457;SDS011;65384;52.016;5.428;2023-05-16T03:30:36;7.63;;;1.80;;
68457;SDS011;65384;52.016;5.428;2023-05-16T03:33:01;9.25;;;1.70;;
68457;SDS011;65384;52.016;5.428;2023-05-16T03:35:28;7.93;;;1.60;;
68457;SDS011;65384;52.016;5.428;2023-05-16T03:37:54;6.82;;;1.70;;
68457;SDS011;65384;52.016;5.428;2023-05-16T03:40:19;7.15;;;1.73;;
68457;SDS011;65384;52.016;5.428;2023-05-16T03:42:45;8.48;;;1.88;;
68457;SDS011;65384;52.016;5.428;2023-05-16T03:45:10;14.02;;;1.70;;
68457;SDS011;65384;52.016;5.428;2023-05-16T03:47:36;7.13;;;1.60;;
68457;SDS011;65384;52.016;5.428;2023-05-16T03:50:01;12.00;;;1.58;;
68457;SDS011;65384;52.016;5.428;2023-05-16T03:52:27;9.23;;;1.65;;
68457;SDS011;65384;52.016;5.428;2023-05-16T03:54:52;7.95;;;1.45;;
68457;SDS011;65384;52.016;5.428;2023-05-16T03:57:18;9.80;;;1.85;;
68457;SDS011;65384;52.016;5.428;2023-05-16T03:59:43;15.27;;;2.15;;
68457;SDS011;65384;52.016;5.428;2023-05-16T04:02:08;9.18;;;1.60;;
68457;SDS011;65384;52.016;5.428;2023-05-16T04:04:34;7.05;;;1.50;;
68457;SDS011;65384;52.016;5.428;2023-05-16T04:07:00;8.43;;;1.42;;
68457;SDS011;65384;52.016;5.428;2023-05-16T04:09:28;6.57;;;1.33;;
68457;SDS011;65384;52.016;5.428;2023-05-16T04:11:53;8.57;;;1.55;;
68457;SDS011;65384;52.016;5.428;2023-05-16T04:14:24;7.53;;;1.48;;
68457;SDS011;65384;52.016;5.428;2023-05-16T04:16:49;6.40;;;1.60;;
68457;SDS011;65384;52.016;5.428;2023-05-16T04:19:15;12.25;;;1.55;;
68457;SDS011;65384;52.016;5.428;2023-05-16T04:21:41;9.95;;;1.65;;
68457;SDS011;65384;52.016;5.428;2023-05-16T04:24:06;11.23;;;1.55;;
68457;SDS011;65384;52.016;5.428;2023-05-16T04:26:32;8.13;;;1.42;;
68457;SDS011;65384;52.016;5.428;2023-05-16T04:28:57;6.03;;;1.40;;
68457;SDS011;65384;52.016;5.428;2023-05-16T04:31:24;8.32;;;1.73;;
68457;SDS011;65384;52.016;5.428;2023-05-16T04:33:49;9.07;;;1.48;;
68457;SDS011;65384;52.016;5.428;2023-05-16T04:36:15;7.63;;;1.38;;
68457;SDS011;65384;52.016;5.428;2023-05-16T04:38:40;9.57;;;1.27;;
68457;SDS011;65384;52.016;5.428;2023-05-16T04:41:06;9.35;;;1.60;;
68457;SDS011;65384;52.016;5.428;2023-05-16T04:43:32;10.15;;;1.38;;
68457;SDS011;65384;52.016;5.428;2023-05-16T04:45:57;8.10;;;1.92;;
68457;SDS011;65384;52.016;5.428;2023-05-16T04:48:23;12.82;;;1.40;;
68457;SDS011;65384;52.016;5.428;2023-05-16T04:50:48;8.50;;;1.55;;
68457;SDS011;65384;52.016;5.428;2023-05-16T04:53:14;8.95;;;1.73;;
68457;SDS011;65384;52.016;5.428;2023-05-16T04:55:39;14.02;;;1.98;;
68457;SDS011;65384;52.016;5.428;2023-05-16T04:58:05;7.60;;;1.27;;
68457;SDS011;65384;52.016;5.428;2023-05-16T05:00:30;12.27;;;1.48;;
68457;SDS011;65384;52.016;5.428;2023-05-16T05:02:56;10.52;;;2.30;;
68457;SDS011;65384;52.016;5.428;2023-05-16T05:05:21;6.22;;;1.55;;
68457;SDS011;65384;52.016;5.428;2023-05-16T05:07:47;8.93;;;1.50;;
68457;SDS011;65384;52.016;5.428;2023-05-16T05:10:12;5.80;;;1.55;;
68457;SDS011;65384;52.016;5.428;2023-05-16T05:12:38;10.15;;;1.90;;
68457;SDS011;65384;52.016;5.428;2023-05-16T05:15:04;9.32;;;1.45;;
68457;SDS011;65384;52.016;5.428;2023-05-16T05:17:30;9.80;;;1.60;;
68457;SDS011;65384;52.016;5.428;2023-05-16T05:19:55;9.80;;;1.50;;
68457;SDS011;65384;52.016;5.428;2023-05-16T05:22:20;9.60;;;1.48;;
68457;SDS011;65384;52.016;5.428;2023-05-16T05:24:46;12.60;;;1.50;;
68457;SDS011;65384;52.016;5.428;2023-05-16T05:27:11;6.00;;;1.40;;
68457;SDS011;65384;52.016;5.428;2023-05-16T05:29:37;5.22;;;1.40;;
68457;SDS011;65384;52.016;5.428;2023-05-16T05:32:02;9.05;;;1.40;;
68457;SDS011;65384;52.016;5.428;2023-05-16T05:34:28;7.47;;;1.30;;
68457;SDS011;65384;52.016;5.428;2023-05-16T05:36:53;11.35;;;1.67;;
68457;SDS011;65384;52.016;5.428;2023-05-16T05:39:18;5.57;;;1.30;;
68457;SDS011;65384;52.016;5.428;2023-05-16T05:41:44;12.27;;;1.88;;
68457;SDS011;65384;52.016;5.428;2023-05-16T05:44:09;6.18;;;1.17;;
68457;SDS011;65384;52.016;5.428;2023-05-16T05:46:35;7.00;;;1.40;;
68457;SDS011;65384;52.016;5.428;2023-05-16T05:49:00;7.18;;;1.20;;
68457;SDS011;65384;52.016;5.428;2023-05-16T05:51:26;7.15;;;1.20;;
68457;SDS011;65384;52.016;5.428;2023-05-16T05:53:51;5.15;;;1.27;;
68457;SDS011;65384;52.016;5.428;2023-05-16T05:56:17;8.45;;;1.40;;
68457;SDS011;65384;52.016;5.428;2023-05-16T05:58:42;12.13;;;1.30;;
68457;SDS011;65384;52.016;5.428;2023-05-16T06:01:09;8.43;;;1.33;;
68457;SDS011;65384;52.016;5.428;2023-05-16T06:03:35;8.18;;;1.45;;
68457;SDS011;65384;52.016;5.428;2023-05-16T06:06:00;9.50;;;1.55;;
68457;SDS011;65384;52.016;5.428;2023-05-16T06:08:25;9.65;;;1.30;;
68457;SDS011;65384;52.016;5.428;2023-05-16T06:10:51;7.68;;;1.50;;
68457;SDS011;65384;52.016;5.428;2023-05-16T06:13:16;5.82;;;1.40;;
68457;SDS011;65384;52.016;5.428;2023-05-16T06:15:42;9.13;;;1.20;;
68457;SDS011;65384;52.016;5.428;2023-05-16T06:18:07;7.47;;;1.17;;
68457;SDS011;65384;52.016;5.428;2023-05-16T06:20:32;8.98;;;1.05;;
68457;SDS011;65384;52.016;5.428;2023-05-16T06:22:58;8.98;;;1.42;;
68457;SDS011;65384;52.016;5.428;2023-05-16T06:25:23;8.63;;;1.10;;
68457;SDS011;65384;52.016;5.428;2023-05-16T06:27:48;5.38;;;0.95;;
68457;SDS011;65384;52.016;5.428;2023-05-16T06:30:14;4.07;;;1.10;;
68457;SDS011;65384;52.016;5.428;2023-05-16T06:32:39;4.78;;;1.10;;
68457;SDS011;65384;52.016;5.428;2023-05-16T06:35:05;4.18;;;1.10;;
68457;SDS011;65384;52.016;5.428;2023-05-16T06:37:32;9.50;;;1.20;;
68457;SDS011;65384;52.016;5.428;2023-05-16T06:39:57;9.43;;;1.35;;
68457;SDS011;65384;52.016;5.428;2023-05-16T06:42:23;6.60;;;1.55;;
68457;SDS011;65384;52.016;5.428;2023-05-16T06:44:48;2.40;;;0.90;;
68457;SDS011;65384;52.016;5.428;2023-05-16T06:47:14;7.30;;;1.20;;
68457;SDS011;65384;52.016;5.428;2023-05-16T06:49:40;8.00;;;1.40;;
68457;SDS011;65384;52.016;5.428;2023-05-16T06:52:05;9.95;;;1.10;;
68457;SDS011;65384;52.016;5.428;2023-05-16T06:54:30;6.05;;;1.10;;
68457;SDS011;65384;52.016;5.428;2023-05-16T06:56:56;6.00;;;1.25;;
68457;SDS011;65384;52.016;5.428;2023-05-16T06:59:21;9.73;;;1.15;;
68457;SDS011;65384;52.016;5.428;2023-05-16T07:01:47;6.60;;;1.20;;
68457;SDS011;65384;52.016;5.428;2023-05-16T07:04:12;4.35;;;0.90;;
68457;SDS011;65384;52.016;5.428;2023-05-16T07:07:44;5.18;;;0.93;;
68457;SDS011;65384;52.016;5.428;2023-05-16T07:10:09;6.53;;;0.98;;
68457;SDS011;65384;52.016;5.428;2023-05-16T07:12:35;2.45;;;0.73;;
68457;SDS011;65384;52.016;5.428;2023-05-16T07:15:04;3.88;;;1.00;;
68457;SDS011;65384;52.016;5.428;2023-05-16T07:17:30;8.18;;;1.30;;
68457;SDS011;65384;52.016;5.428;2023-05-16T07:19:55;5.15;;;0.70;;
68457;SDS011;65384;52.016;5.428;2023-05-16T07:22:21;4.30;;;1.10;;
68457;SDS011;65384;52.016;5.428;2023-05-16T07:24:46;5.03;;;1.05;;
68457;SDS011;65384;52.016;5.428;2023-05-16T07:27:11;8.13;;;0.80;;
68457;SDS011;65384;52.016;5.428;2023-05-16T07:29:37;3.03;;;0.77;;
68457;SDS011;65384;52.016;5.428;2023-05-16T07:32:03;5.45;;;1.00;;
68457;SDS011;65384;52.016;5.428;2023-05-16T07:34:28;3.92;;;0.88;;
68457;SDS011;65384;52.016;5.428;2023-05-16T07:36:54;5.72;;;0.70;;
68457;SDS011;65384;52.016;5.428;2023-05-16T07:39:19;5.30;;;0.70;;
68457;SDS011;65384;52.016;5.428;2023-05-16T07:41:45;7.53;;;0.90;;
68457;SDS011;65384;52.016;5.428;2023-05-16T07:44:10;5.22;;;0.95;;
68457;SDS011;65384;52.016;5.428;2023-05-16T07:46:35;4.47;;;0.77;;
68457;SDS011;65384;52.016;5.428;2023-05-16T07:49:01;4.00;;;0.82;;
68457;SDS011;65384;52.016;5.428;2023-05-16T07:51:27;3.95;;;0.70;;
68457;SDS011;65384;52.016;5.428;2023-05-16T07:53:52;4.18;;;0.80;;
68457;SDS011;65384;52.016;5.428;2023-05-16T07:56:18;4.47;;;0.80;;
68457;SDS011;65384;52.016;5.428;2023-05-16T07:58:43;3.83;;;0.70;;
68457;SDS011;65384;52.016;5.428;2023-05-16T08:01:09;7.63;;;1.10;;
68457;SDS011;65384;52.016;5.428;2023-05-16T08:03:35;4.15;;;0.93;;
68457;SDS011;65384;52.016;5.428;2023-05-16T08:06:01;8.85;;;1.20;;
68457;SDS011;65384;52.016;5.428;2023-05-16T08:08:26;4.32;;;0.70;;
68457;SDS011;65384;52.016;5.428;2023-05-16T08:10:51;3.65;;;0.73;;
68457;SDS011;65384;52.016;5.428;2023-05-16T08:13:17;4.22;;;0.70;;
68457;SDS011;65384;52.016;5.428;2023-05-16T08:15:42;6.88;;;0.70;;
68457;SDS011;65384;52.016;5.428;2023-05-16T08:18:11;2.97;;;0.90;;
68457;SDS011;65384;52.016;5.428;2023-05-16T08:20:41;4.75;;;0.80;;
68457;SDS011;65384;52.016;5.428;2023-05-16T08:23:07;3.42;;;0.60;;
68457;SDS011;65384;52.016;5.428;2023-05-16T08:25:33;4.20;;;0.80;;
68457;SDS011;65384;52.016;5.428;2023-05-16T08:27:58;5.68;;;0.88;;
68457;SDS011;65384;52.016;5.428;2023-05-16T08:30:26;3.42;;;0.73;;
68457;SDS011;65384;52.016;5.428;2023-05-16T08:32:51;5.20;;;0.95;;
68457;SDS011;65384;52.016;5.428;2023-05-16T08:35:17;4.30;;;0.70;;
68457;SDS011;65384;52.016;5.428;2023-05-16T08:37:42;4.20;;;0.80;;
68457;SDS011;65384;52.016;5.428;2023-05-16T08:40:08;6.03;;;0.88;;
68457;SDS011;65384;52.016;5.428;2023-05-16T08:42:34;4.88;;;0.95;;
68457;SDS011;65384;52.016;5.428;2023-05-16T08:45:00;3.33;;;0.70;;
68457;SDS011;65384;52.016;5.428;2023-05-16T08:47:26;5.13;;;0.80;;
68457;SDS011;65384;52.016;5.428;2023-05-16T08:49:55;4.75;;;1.00;;
68457;SDS011;65384;52.016;5.428;2023-05-16T08:52:21;6.38;;;0.90;;
68457;SDS011;65384;52.016;5.428;2023-05-16T08:54:54;4.25;;;0.82;;
68457;SDS011;65384;52.016;5.428;2023-05-16T08:57:21;3.25;;;1.00;;
68457;SDS011;65384;52.016;5.428;2023-05-16T08:59:47;3.85;;;0.70;;
68457;SDS011;65384;52.016;5.428;2023-05-16T09:02:12;4.05;;;0.75;;
68457;SDS011;65384;52.016;5.428;2023-05-16T09:04:37;5.13;;;0.70;;
68457;SDS011;65384;52.016;5.428;2023-05-16T09:07:05;2.58;;;0.80;;
68457;SDS011;65384;52.016;5.428;2023-05-16T09:09:30;6.85;;;0.60;;
68457;SDS011;65384;52.016;5.428;2023-05-16T09:11:56;2.28;;;0.68;;
68457;SDS011;65384;52.016;5.428;2023-05-16T09:14:21;2.92;;;0.60;;
68457;SDS011;65384;52.016;5.428;2023-05-16T09:17:01;3.03;;;0.60;;
68457;SDS011;65384;52.016;5.428;2023-05-16T09:19:31;6.40;;;0.70;;
68457;SDS011;65384;52.016;5.428;2023-05-16T09:22:01;4.15;;;0.80;;
68457;SDS011;65384;52.016;5.428;2023-05-16T09:24:27;4.45;;;0.77;;
68457;SDS011;65384;52.016;5.428;2023-05-16T09:26:53;4.38;;;0.65;;
68457;SDS011;65384;52.016;5.428;2023-05-16T09:29:18;2.35;;;0.63;;
68457;SDS011;65384;52.016;5.428;2023-05-16T09:31:44;2.72;;;0.60;;
68457;SDS011;65384;52.016;5.428;2023-05-16T09:34:09;5.68;;;0.80;;
68457;SDS011;65384;52.016;5.428;2023-05-16T09:36:35;1.33;;;0.52;;
68457;SDS011;65384;52.016;5.428;2023-05-16T09:39:00;4.88;;;0.63;;
68457;SDS011;65384;52.016;5.428;2023-05-16T09:41:26;3.28;;;0.60;;
68457;SDS011;65384;52.016;5.428;2023-05-16T09:43:51;3.25;;;0.50;;
68457;SDS011;65384;52.016;5.428;2023-05-16T09:46:16;3.38;;;0.65;;
68457;SDS011;65384;52.016;5.428;2023-05-16T09:48:44;2.70;;;0.60;;
68457;SDS011;65384;52.016;5.428;2023-05-16T09:51:10;2.25;;;0.52;;
68457;SDS011;65384;52.016;5.428;2023-05-16T09:53:35;2.90;;;0.70;;
68457;SDS011;65384;52.016;5.428;2023-05-16T09:56:03;4.82;;;0.63;;
68457;SDS011;65384;52.016;5.428;2023-05-16T09:58:32;5.53;;;0.88;;
68457;SDS011;65384;52.016;5.428;2023-05-16T10:01:01;4.88;;;0.77;;
68457;SDS011;65384;52.016;5.428;2023-05-16T10:03:27;4.05;;;0.70;;
68457;SDS011;65384;52.016;5.428;2023-05-16T10:05:53;4.38;;;0.70;;
68457;SDS011;65384;52.016;5.428;2023-05-16T10:08:20;3.33;;;0.95;;
68457;SDS011;65384;52.016;5.428;2023-05-16T10:10:49;5.25;;;0.93;;
68457;SDS011;65384;52.016;5.428;2023-05-16T10:13:15;1.85;;;0.70;;
68457;SDS011;65384;52.016;5.428;2023-05-16T10:15:43;1.58;;;0.40;;
68457;SDS011;65384;52.016;5.428;2023-05-16T10:18:09;1.67;;;0.50;;
68457;SDS011;65384;52.016;5.428;2023-05-16T10:20:37;2.22;;;0.60;;
68457;SDS011;65384;52.016;5.428;2023-05-16T10:23:04;6.80;;;0.75;;
68457;SDS011;65384;52.016;5.428;2023-05-16T10:25:35;3.42;;;0.60;;
68457;SDS011;65384;52.016;5.428;2023-05-16T10:28:01;1.67;;;0.57;;
68457;SDS011;65384;52.016;5.428;2023-05-16T10:30:28;3.47;;;0.70;;
68457;SDS011;65384;52.016;5.428;2023-05-16T10:32:53;8.70;;;0.77;;
68457;SDS011;65384;52.016;5.428;2023-05-16T10:35:20;2.80;;;0.65;;
68457;SDS011;65384;52.016;5.428;2023-05-16T10:37:46;5.82;;;0.70;;
68457;SDS011;65384;52.016;5.428;2023-05-16T10:40:12;8.80;;;1.08;;
68457;SDS011;65384;52.016;5.428;2023-05-16T10:42:38;3.85;;;0.60;;
68457;SDS011;65384;52.016;5.428;2023-05-16T10:45:19;4.95;;;0.70;;
68457;SDS011;65384;52.016;5.428;2023-05-16T10:47:58;4.85;;;0.70;;
68457;SDS011;65384;52.016;5.428;2023-05-16T10:50:30;4.72;;;0.70;;
68457;SDS011;65384;52.016;5.428;2023-05-16T10:53:17;9.20;;;0.80;;
68457;SDS011;65384;52.016;5.428;2023-05-16T11:19:39;3.85;;;0.70;;
68457;SDS011;65384;52.016;5.428;2023-05-16T11:29:53;2.30;;;0.60;;
68457;SDS011;65384;52.016;5.428;2023-05-16T11:32:19;1.95;;;0.65;;
68457;SDS011;65384;52.016;5.428;2023-05-16T11:34:46;3.47;;;0.73;;
68457;SDS011;65384;52.016;5.428;2023-05-16T11:37:12;4.57;;;0.60;;
68457;SDS011;65384;52.016;5.428;2023-05-16T11:39:39;3.95;;;0.50;;
68457;SDS011;65384;52.016;5.428;2023-05-16T11:42:04;2.35;;;0.70;;
68457;SDS011;65384;52.016;5.428;2023-05-16T11:44:30;3.67;;;0.70;;
68457;SDS011;65384;52.016;5.428;2023-05-16T11:46:55;2.55;;;0.60;;
68457;SDS011;65384;52.016;5.428;2023-05-16T11:49:21;3.92;;;0.80;;
68457;SDS011;65384;52.016;5.428;2023-05-16T11:51:46;3.38;;;0.70;;
68457;SDS011;65384;52.016;5.428;2023-05-16T11:54:13;2.95;;;0.70;;
68457;SDS011;65384;52.016;5.428;2023-05-16T11:56:39;3.92;;;0.70;;
68457;SDS011;65384;52.016;5.428;2023-05-16T11:59:05;4.25;;;0.82;;
68457;SDS011;65384;52.016;5.428;2023-05-16T12:01:34;3.95;;;0.70;;
68457;SDS011;65384;52.016;5.428;2023-05-16T12:04:10;1.45;;;0.50;;
68457;SDS011;65384;52.016;5.428;2023-05-16T12:06:37;4.22;;;0.93;;
68457;SDS011;65384;52.016;5.428;2023-05-16T12:09:06;4.32;;;0.60;;
68457;SDS011;65384;52.016;5.428;2023-05-16T12:14:04;3.28;;;0.73;;
68457;SDS011;65384;52.016;5.428;2023-05-16T12:16:30;3.30;;;0.60;;
68457;SDS011;65384;52.016;5.428;2023-05-16T12:18:56;3.08;;;0.60;;
68457;SDS011;65384;52.016;5.428;2023-05-16T12:21:22;1.83;;;0.60;;
68457;SDS011;65384;52.016;5.428;2023-05-16T12:23:48;2.92;;;0.68;;
68457;SDS011;65384;52.016;5.428;2023-05-16T12:26:13;3.30;;;0.70;;
68457;SDS011;65384;52.016;5.428;2023-05-16T12:28:38;4.13;;;0.70;;
68457;SDS011;65384;52.016;5.428;2023-05-16T12:31:17;2.55;;;0.70;;
68457;SDS011;65384;52.016;5.428;2023-05-16T12:33:43;2.95;;;0.65;;
68457;SDS011;65384;52.016;5.428;2023-05-16T12:36:11;3.25;;;0.70;;
68457;SDS011;65384;52.016;5.428;2023-05-16T12:38:40;2.80;;;0.63;;
68457;SDS011;65384;52.016;5.428;2023-05-16T12:41:06;5.00;;;1.02;;
68457;SDS011;65384;52.016;5.428;2023-05-16T12:43:31;3.97;;;0.80;;
68457;SDS011;65384;52.016;5.428;2023-05-16T12:45:57;5.75;;;0.80;;
68457;SDS011;65384;52.016;5.428;2023-05-16T12:48:23;4.10;;;0.80;;
68457;SDS011;65384;52.016;5.428;2023-05-16T12:50:53;5.68;;;0.60;;
68457;SDS011;65384;52.016;5.428;2023-05-16T12:53:19;4.07;;;0.68;;
68457;SDS011;65384;52.016;5.428;2023-05-16T12:55:45;2.53;;;0.60;;
68457;SDS011;65384;52.016;5.428;2023-05-16T12:58:10;5.63;;;0.65;;
68457;SDS011;65384;52.016;5.428;2023-05-16T13:00:36;5.85;;;0.98;;
68457;SDS011;65384;52.016;5.428;2023-05-16T13:03:03;4.35;;;0.65;;
68457;SDS011;65384;52.016;5.428;2023-05-16T13:05:29;3.55;;;0.65;;
68457;SDS011;65384;52.016;5.428;2023-05-16T13:07:54;3.97;;;0.85;;
68457;SDS011;65384;52.016;5.428;2023-05-16T13:10:20;5.05;;;0.90;;
68457;SDS011;65384;52.016;5.428;2023-05-16T13:12:45;3.88;;;0.90;;
68457;SDS011;65384;52.016;5.428;2023-05-16T13:15:11;6.53;;;0.95;;
68457;SDS011;65384;52.016;5.428;2023-05-16T13:17:38;3.88;;;0.70;;
68457;SDS011;65384;52.016;5.428;2023-05-16T13:20:04;5.03;;;0.90;;
68457;SDS011;65384;52.016;5.428;2023-05-16T13:22:33;2.53;;;0.70;;
68457;SDS011;65384;52.016;5.428;2023-05-16T13:24:59;4.70;;;0.77;;
68457;SDS011;65384;52.016;5.428;2023-05-16T13:27:25;3.58;;;0.90;;
68457;SDS011;65384;52.016;5.428;2023-05-16T13:29:50;1.83;;;0.63;;
68457;SDS011;65384;52.016;5.428;2023-05-16T13:32:15;4.10;;;0.70;;
68457;SDS011;65384;52.016;5.428;2023-05-16T13:34:42;4.30;;;0.70;;
68457;SDS011;65384;52.016;5.428;2023-05-16T13:37:08;2.25;;;0.93;;
68457;SDS011;65384;52.016;5.428;2023-05-16T13:39:33;7.82;;;1.38;;
68457;SDS011;65384;52.016;5.428;2023-05-16T13:41:58;6.32;;;0.80;;
68457;SDS011;65384;52.016;5.428;2023-05-16T13:44:24;11.10;;;0.90;;
68457;SDS011;65384;52.016;5.428;2023-05-16T13:46:50;3.40;;;0.70;;
68457;SDS011;65384;52.016;5.428;2023-05-16T13:49:15;4.47;;;0.80;;
68457;SDS011;65384;52.016;5.428;2023-05-16T13:51:41;3.72;;;0.80;;
68457;SDS011;65384;52.016;5.428;2023-05-16T13:54:06;4.20;;;0.80;;
68457;SDS011;65384;52.016;5.428;2023-05-16T13:56:32;5.85;;;0.77;;
68457;SDS011;65384;52.016;5.428;2023-05-16T13:58:57;2.35;;;0.60;;
68457;SDS011;65384;52.016;5.428;2023-05-16T14:01:23;5.88;;;0.73;;
68457;SDS011;65384;52.016;5.428;2023-05-16T14:03:49;2.42;;;0.60;;
68457;SDS011;65384;52.016;5.428;2023-05-16T14:06:14;5.40;;;0.80;;
68457;SDS011;65384;52.016;5.428;2023-05-16T14:08:40;8.15;;;0.80;;
68457;SDS011;65384;52.016;5.428;2023-05-16T14:11:05;4.15;;;0.82;;
68457;SDS011;65384;52.016;5.428;2023-05-16T14:13:30;2.80;;;0.70;;
68457;SDS011;65384;52.016;5.428;2023-05-16T14:15:56;3.00;;;0.68;;
68457;SDS011;65384;52.016;5.428;2023-05-16T14:18:21;4.63;;;0.68;;
68457;SDS011;65384;52.016;5.428;2023-05-16T14:20:47;2.25;;;0.47;;
68457;SDS011;65384;52.016;5.428;2023-05-16T14:23:14;6.82;;;0.90;;
68457;SDS011;65384;52.016;5.428;2023-05-16T14:25:40;4.78;;;0.90;;
68457;SDS011;65384;52.016;5.428;2023-05-16T14:28:05;4.35;;;1.45;;
68457;SDS011;65384;52.016;5.428;2023-05-16T14:30:30;4.20;;;0.80;;
68457;SDS011;65384;52.016;5.428;2023-05-16T14:32:56;4.22;;;0.70;;
68457;SDS011;65384;52.016;5.428;2023-05-16T14:35:23;2.30;;;0.60;;
68457;SDS011;65384;52.016;5.428;2023-05-16T14:37:48;4.00;;;0.80;;
68457;SDS011;65384;52.016;5.428;2023-05-16T14:40:14;2.33;;;0.68;;
68457;SDS011;65384;52.016;5.428;2023-05-16T14:42:39;4.30;;;0.65;;
68457;SDS011;65384;52.016;5.428;2023-05-16T14:45:05;3.90;;;0.68;;
68457;SDS011;65384;52.016;5.428;2023-05-16T14:47:30;3.03;;;0.70;;
68457;SDS011;65384;52.016;5.428;2023-05-16T14:49:56;6.05;;;0.80;;
68457;SDS011;65384;52.016;5.428;2023-05-16T14:52:21;5.05;;;0.80;;
68457;SDS011;65384;52.016;5.428;2023-05-16T14:54:47;4.35;;;0.70;;
68457;SDS011;65384;52.016;5.428;2023-05-16T14:57:12;4.93;;;0.80;;
68457;SDS011;65384;52.016;5.428;2023-05-16T14:59:38;6.20;;;0.80;;
68457;SDS011;65384;52.016;5.428;2023-05-16T15:02:03;4.80;;;0.93;;
68457;SDS011;65384;52.016;5.428;2023-05-16T15:04:29;4.65;;;0.75;;
68457;SDS011;65384;52.016;5.428;2023-05-16T15:06:54;2.38;;;0.60;;
68457;SDS011;65384;52.016;5.428;2023-05-16T15:09:20;4.05;;;0.70;;
68457;SDS011;65384;52.016;5.428;2023-05-16T15:11:45;4.85;;;0.68;;
68457;SDS011;65384;52.016;5.428;2023-05-16T15:14:11;3.47;;;0.70;;
68457;SDS011;65384;52.016;5.428;2023-05-16T15:16:36;3.33;;;0.65;;
68457;SDS011;65384;52.016;5.428;2023-05-16T15:19:02;4.78;;;0.70;;
68457;SDS011;65384;52.016;5.428;2023-05-16T15:21:27;3.03;;;1.02;;
68457;SDS011;65384;52.016;5.428;2023-05-16T15:23:53;2.70;;;0.82;;